Time;durP1;ratioP1;P1;durP2;ratioP2;P2;SDS_P1;SDS_P2;PMS_P1;PMS_P2;Temp;Humidity;BMP_temperature;BMP_pressure;BME280_temperature;BME280_humidity;BME280_pressure;Samples;Min_cycle;Max_cycle;Signal;HPM_P1;HPM_P2
2021/05/22 00:00:08;;;;;;;2.67;1.10;;;;;;;19.47;44.50;99914.00;5052335;28;20024;-65
2021/05/22 00:02:34;;;;;;;2.92;1.60;;;;;;;19.46;44.74;99912.34;5053367;28;20025;-64
2021/05/22 00:04:59;;;;;;;2.30;0.98;;;;;;;19.45;44.54;99906.22;5053322;28;20131;-64
2021/05/22 00:07:24;;;;;;;4.07;1.38;;;;;;;19.44;44.38;99912.50;5052083;28;20512;-64
2021/05/22 00:09:50;;;;;;;3.03;1.27;;;;;;;19.44;44.30;99903.72;5053244;28;20108;-64
2021/05/22 00:12:18;;;;;;;4.57;1.10;;;;;;;19.42;44.47;99898.59;5052985;28;20456;-64
2021/05/22 00:14:43;;;;;;;2.85;1.10;;;;;;;19.41;44.36;99886.41;5052384;28;20349;-64
2021/05/22 00:17:08;;;;;;;3.22;1.10;;;;;;;19.40;44.23;99884.72;5052680;28;20037;-65
2021/05/22 00:19:36;;;;;;;3.00;1.10;;;;;;;19.39;44.55;99885.69;5053224;28;20107;-64
2021/05/22 00:22:02;;;;;;;3.95;1.42;;;;;;;19.39;44.38;99883.91;5051997;28;20297;-63
2021/05/22 00:24:27;;;;;;;3.13;1.17;;;;;;;19.36;44.60;99876.28;5053163;28;20469;-64
2021/05/22 00:26:53;;;;;;;2.83;0.90;;;;;;;19.37;44.13;99877.09;5053520;28;20025;-65
2021/05/22 00:29:18;;;;;;;4.28;1.05;;;;;;;19.37;44.33;99877.09;5052106;28;20468;-64
2021/05/22 00:31:46;;;;;;;2.72;1.10;;;;;;;19.32;44.31;99874.94;5053302;28;20505;-64
2021/05/22 00:34:11;;;;;;;3.00;1.05;;;;;;;19.35;44.41;99874.63;5052923;28;20060;-65
2021/05/22 00:36:40;;;;;;;3.00;0.90;;;;;;;19.30;44.13;99862.88;5052421;28;20128;-64
2021/05/22 00:39:05;;;;;;;2.90;1.00;;;;;;;19.32;44.19;99864.38;5052837;28;20107;-65
2021/05/22 00:41:33;;;;;;;2.33;1.10;;;;;;;19.31;44.08;99868.00;5053320;28;20108;-66
2021/05/22 00:43:59;;;;;;;2.55;1.00;;;;;;;19.32;44.28;99871.47;5052412;28;20048;-64
2021/05/22 00:46:24;;;;;;;4.10;1.30;;;;;;;19.29;44.02;99864.69;5052622;28;20033;-64
2021/05/22 00:48:49;;;;;;;2.95;0.98;;;;;;;19.29;43.88;99855.94;5053040;28;20025;-64
2021/05/22 00:51:15;;;;;;;2.65;1.00;;;;;;;19.29;43.92;99866.50;5051912;28;20036;-65
2021/05/22 00:53:40;;;;;;;3.28;1.08;;;;;;;19.27;44.00;99858.72;5053145;28;20021;-64
2021/05/22 00:56:06;;;;;;;3.63;1.10;;;;;;;19.27;44.16;99853.44;5052752;28;20439;-64
2021/05/22 00:58:33;;;;;;;2.80;1.00;;;;;;;19.26;44.10;99850.97;5052026;28;20052;-64
2021/05/22 01:00:59;;;;;;;1.63;0.68;;;;;;;19.25;43.98;99847.50;5053044;28;20043;-64
2021/05/22 01:03:36;;;;;;;3.78;1.20;;;;;;;19.23;43.92;99846.81;5050742;28;20025;-64
2021/05/22 01:06:16;;;;;;;3.42;0.90;;;;;;;19.23;43.63;99846.81;5052909;28;20051;-67
2021/05/22 01:08:45;;;;;;;2.67;1.02;;;;;;;19.23;43.90;99854.72;5052939;28;20017;-64
2021/05/22 01:11:36;;;;;;;3.60;1.20;;;;;;;19.21;44.07;99849.59;5051533;28;20032;-64
2021/05/22 01:14:39;;;;;;;4.75;1.10;;;;;;;19.22;43.92;99842.53;5052185;28;20025;-65
2021/05/22 01:17:05;;;;;;;4.57;1.58;;;;;;;19.19;43.76;99845.47;4971199;28;20062;-64
2021/05/22 01:19:51;;;;;;;3.45;1.00;;;;;;;19.19;44.05;99859.50;5036129;28;20557;-64
2021/05/22 01:22:18;;;;;;;2.85;0.98;;;;;;;19.19;43.88;99843.66;5051957;28;20029;-64
2021/05/22 01:24:49;;;;;;;3.78;1.08;;;;;;;19.19;44.02;99845.47;5051165;28;20025;-65
2021/05/22 01:27:15;;;;;;;3.42;1.10;;;;;;;19.19;43.69;99842.84;5052143;28;20190;-65
2021/05/22 01:29:41;;;;;;;3.13;1.08;;;;;;;19.17;44.02;99852.72;5052214;28;20032;-64
2021/05/22 01:32:08;;;;;;;3.28;1.08;;;;;;;19.17;43.65;99850.09;5051335;28;20021;-65
2021/05/22 01:34:36;;;;;;;2.45;1.00;;;;;;;19.14;43.82;99830.09;5052021;28;20025;-65
2021/05/22 01:37:02;;;;;;;4.32;1.08;;;;;;;19.16;43.75;99846.59;5051467;28;20052;-64
2021/05/22 01:39:28;;;;;;;4.43;1.27;;;;;;;19.15;43.94;99834.41;5051418;28;20078;-64
2021/05/22 01:41:56;;;;;;;2.63;0.95;;;;;;;19.14;43.58;99838.00;5052034;28;20021;-64
2021/05/22 01:44:24;;;;;;;3.35;1.02;;;;;;;19.14;43.87;99829.28;5050857;28;20041;-64
2021/05/22 01:46:51;;;;;;;3.22;1.08;;;;;;;19.13;43.77;99833.72;5051197;28;20025;-64
2021/05/22 01:49:17;;;;;;;3.17;1.00;;;;;;;19.13;43.56;99825.78;5051745;28;20452;-64
2021/05/22 01:51:44;;;;;;;3.10;1.10;;;;;;;19.12;43.97;99834.72;5052082;28;20108;-64
2021/05/22 01:54:11;;;;;;;3.42;0.93;;;;;;;19.12;43.49;99823.31;5050902;28;20028;-64
2021/05/22 01:56:37;;;;;;;2.75;0.88;;;;;;;19.11;43.78;99824.31;5051970;28;20150;-64
2021/05/22 01:59:03;;;;;;;2.88;0.95;;;;;;;19.11;43.46;99830.41;5051682;28;20362;-64
2021/05/22 02:01:29;;;;;;;2.15;0.88;;;;;;;19.09;43.54;99834.16;5051312;28;20108;-65
2021/05/22 02:03:57;;;;;;;3.92;1.05;;;;;;;19.09;43.94;99827.09;5051476;28;20096;-64
2021/05/22 02:06:28;;;;;;;3.25;0.93;;;;;;;19.07;43.71;99828.22;5051633;28;20033;-64
2021/05/22 02:08:56;;;;;;;2.53;0.95;;;;;;;19.07;43.46;99822.94;5051169;28;20108;-64
2021/05/22 02:11:24;;;;;;;3.70;0.95;;;;;;;19.08;43.47;99833.34;5051295;28;20473;-65
2021/05/22 02:13:54;;;;;;;1.77;0.80;;;;;;;19.06;43.32;99835.34;5051329;28;20104;-64
2021/05/22 02:16:26;;;;;;;3.55;0.98;;;;;;;19.05;43.33;99831.03;5055132;28;20028;-65
2021/05/22 02:18:54;;;;;;;3.70;1.13;;;;;;;19.06;43.21;99837.97;5055608;28;20365;-64
2021/05/22 02:21:23;;;;;;;3.10;1.00;;;;;;;19.05;43.34;99831.03;5054627;28;20066;-64
2021/05/22 02:23:49;;;;;;;3.50;1.00;;;;;;;19.05;43.33;99831.03;5055377;28;20147;-64
2021/05/22 02:26:16;;;;;;;3.80;0.85;;;;;;;19.04;43.64;99826.72;5055007;28;20076;-64
2021/05/22 02:28:43;;;;;;;2.90;1.20;;;;;;;19.04;43.55;99824.06;5054706;28;20025;-63
2021/05/22 02:31:10;;;;;;;2.83;0.90;;;;;;;19.01;43.51;99824.41;5055020;28;20047;-65
2021/05/22 02:33:36;;;;;;;3.22;1.13;;;;;;;19.03;43.52;99831.19;5055388;28;20017;-64
2021/05/22 02:36:03;;;;;;;2.83;0.85;;;;;;;19.01;43.53;99827.06;5054047;28;20071;-64
2021/05/22 02:38:41;;;;;;;3.20;0.80;;;;;;;18.99;43.61;99821.94;5055217;28;20021;-65
2021/05/22 02:41:10;;;;;;;2.25;0.80;;;;;;;19.01;43.70;99825.22;5054910;28;20109;-64
2021/05/22 02:43:37;;;;;;;2.45;0.90;;;;;;;19.00;43.11;99823.56;5054486;28;20101;-64
2021/05/22 02:46:04;;;;;;;3.20;0.90;;;;;;;19.01;43.28;99822.59;5054869;28;20151;-64
2021/05/22 02:48:35;;;;;;;2.47;0.80;;;;;;;19.00;43.32;99817.47;5055155;28;20035;-65
2021/05/22 02:51:03;;;;;;;3.58;1.00;;;;;;;18.98;43.41;99817.63;5054352;28;20049;-65
2021/05/22 02:53:29;;;;;;;2.80;1.08;;;;;;;18.99;43.43;99815.78;5054745;28;20025;-64
2021/05/22 02:55:55;;;;;;;3.72;1.00;;;;;;;18.97;43.19;99823.88;5054347;28;20100;-64
2021/05/22 02:58:20;;;;;;;2.95;0.80;;;;;;;18.97;43.36;99812.50;5054608;28;20017;-63
2021/05/22 03:00:47;;;;;;;2.28;0.73;;;;;;;18.96;43.43;99809.03;5054911;28;20100;-63
2021/05/22 03:03:12;;;;;;;3.47;0.80;;;;;;;18.96;43.70;99809.03;5053834;28;20021;-64
2021/05/22 03:05:40;;;;;;;3.10;0.93;;;;;;;18.96;43.25;99808.19;5054913;28;20032;-64
2021/05/22 03:08:06;;;;;;;4.68;1.00;;;;;;;18.96;43.73;99816.09;5053052;28;20116;-65
2021/05/22 03:10:31;;;;;;;2.75;0.95;;;;;;;18.96;43.12;99810.81;5053842;28;20099;-64
2021/05/22 03:12:57;;;;;;;1.95;0.80;;;;;;;18.95;43.30;99814.47;5054800;28;20021;-64
2021/05/22 03:15:22;;;;;;;2.78;0.80;;;;;;;18.94;43.37;99799.59;5054364;28;20490;-64
2021/05/22 03:17:53;;;;;;;3.03;0.82;;;;;;;18.94;43.52;99799.59;5053966;28;20025;-65
2021/05/22 03:20:18;;;;;;;1.90;0.80;;;;;;;18.93;43.26;99801.41;5054325;28;20155;-64
2021/05/22 03:22:44;;;;;;;2.85;1.08;;;;;;;18.92;43.76;99786.53;5054387;28;20096;-64
2021/05/22 03:25:12;;;;;;;2.67;1.00;;;;;;;18.93;43.28;99805.84;5052927;28;20491;-64
2021/05/22 03:27:37;;;;;;;3.22;0.90;;;;;;;18.91;43.64;99795.44;5053504;28;20476;-65
2021/05/22 03:30:07;;;;;;;2.95;0.80;;;;;;;18.92;43.69;99797.09;5054194;28;20052;-64
2021/05/22 03:32:33;;;;;;;3.40;0.90;;;;;;;18.88;43.43;99790.47;5053583;28;20448;-65
2021/05/22 03:34:58;;;;;;;3.10;1.05;;;;;;;18.90;43.38;99787.69;5054171;28;20143;-64
2021/05/22 03:37:23;;;;;;;3.25;1.23;;;;;;;18.89;43.56;99794.78;5053763;28;20041;-63
2021/05/22 03:39:48;;;;;;;3.33;0.80;;;;;;;18.88;43.31;99793.09;5053129;28;20033;-64
2021/05/22 03:42:14;;;;;;;2.83;0.90;;;;;;;18.89;43.67;99791.31;5053810;28;20293;-64
2021/05/22 03:44:39;;;;;;;2.25;0.80;;;;;;;18.88;43.57;99794.94;5054061;28;20494;-64
2021/05/22 03:47:05;;;;;;;4.88;0.90;;;;;;;18.86;43.62;99789.81;5052843;28;20035;-63
2021/05/22 03:49:33;;;;;;;4.78;0.90;;;;;;;18.88;43.50;99789.66;5053871;28;20427;-64
2021/05/22 03:51:58;;;;;;;2.47;0.90;;;;;;;18.87;43.66;99783.56;5053822;28;20170;-63
2021/05/22 03:54:24;;;;;;;2.17;0.80;;;;;;;18.87;43.84;99791.47;5052330;28;20424;-64
2021/05/22 03:56:49;;;;;;;2.90;0.80;;;;;;;18.86;43.81;99789.81;5053382;28;20128;-63
2021/05/22 03:59:14;;;;;;;3.05;0.90;;;;;;;18.87;43.71;99780.06;5052788;28;20055;-64
2021/05/22 04:01:42;;;;;;;2.23;0.70;;;;;;;18.86;43.96;99781.88;5053851;28;20020;-64
2021/05/22 04:04:08;;;;;;;3.20;0.77;;;;;;;18.85;43.90;99788.16;5053359;28;20328;-64
2021/05/22 04:06:33;;;;;;;3.22;1.00;;;;;;;18.83;43.82;99790.94;5052920;28;20024;-64
2021/05/22 04:09:02;;;;;;;3.00;1.00;;;;;;;18.81;43.77;99789.41;5053378;28;20161;-64
2021/05/22 04:11:27;;;;;;;3.05;0.88;;;;;;;18.84;43.54;99795.25;5053382;28;20057;-64
2021/05/22 04:13:53;;;;;;;2.87;0.90;;;;;;;18.83;43.64;99783.00;5052804;28;20059;-64
2021/05/22 04:16:18;;;;;;;2.85;0.95;;;;;;;18.83;43.75;99798.00;5052936;28;20293;-63
2021/05/22 04:18:43;;;;;;;3.03;0.80;;;;;;;18.82;43.52;99791.09;5053302;28;20131;-64
2021/05/22 04:21:09;;;;;;;2.63;0.80;;;;;;;18.81;43.61;99787.59;5052375;28;20289;-65
2021/05/22 04:23:34;;;;;;;2.95;0.68;;;;;;;18.82;43.37;99786.63;5053146;28;20735;-65
2021/05/22 04:26:02;;;;;;;3.63;0.85;;;;;;;18.81;43.86;99787.59;5053095;28;20040;-65
2021/05/22 04:28:28;;;;;;;3.25;0.90;;;;;;;18.81;43.58;99784.13;5052529;28;20156;-64
2021/05/22 04:30:53;;;;;;;3.70;0.83;;;;;;;18.81;43.87;99792.88;5053057;28;20099;-64
2021/05/22 04:33:18;;;;;;;3.42;1.00;;;;;;;18.80;43.81;99801.78;5052762;28;20281;-63
2021/05/22 04:35:46;;;;;;;1.98;0.70;;;;;;;18.80;43.57;99795.66;5052231;28;20025;-63
2021/05/22 04:38:12;;;;;;;3.05;0.90;;;;;;;18.79;43.62;99786.13;5052410;28;20435;-64
2021/05/22 04:40:37;;;;;;;3.00;0.98;;;;;;;18.78;43.57;99790.53;5053008;28;20021;-64
2021/05/22 04:43:02;;;;;;;3.28;0.88;;;;;;;18.77;43.86;99794.19;5051952;28;20024;-64
2021/05/22 04:45:27;;;;;;;2.70;1.00;;;;;;;18.76;43.69;99792.50;5052821;28;20447;-63
2021/05/22 04:47:53;;;;;;;3.47;1.13;;;;;;;18.78;43.62;99797.66;5052972;28;20029;-64
2021/05/22 04:50:18;;;;;;;4.75;1.00;;;;;;;18.76;43.68;99795.16;5052165;28;20467;-64
2021/05/22 04:52:44;;;;;;;2.33;0.80;;;;;;;18.76;43.52;99792.50;5052494;28;20546;-64
2021/05/22 04:55:12;;;;;;;2.15;0.85;;;;;;;18.76;43.70;99794.34;5052577;28;20025;-65
2021/05/22 04:57:38;;;;;;;3.63;0.80;;;;;;;18.76;43.59;99795.16;5051993;28;20102;-65
2021/05/22 05:00:06;;;;;;;2.92;0.80;;;;;;;18.75;43.89;99796.13;5052326;28;20393;-64
2021/05/22 05:02:32;;;;;;;2.60;0.90;;;;;;;18.74;43.72;99805.03;5052009;28;20033;-65
2021/05/22 05:04:57;;;;;;;3.83;1.05;;;;;;;18.75;43.69;99803.22;5052339;28;20412;-64
2021/05/22 05:07:22;;;;;;;2.50;1.00;;;;;;;18.75;43.61;99795.31;5052633;28;20036;-64
2021/05/22 05:09:50;;;;;;;3.03;1.00;;;;;;;18.73;43.77;99803.38;5051818;28;20053;-64
2021/05/22 05:12:15;;;;;;;3.40;0.80;;;;;;;18.74;43.81;99817.41;5052207;28;20277;-65
2021/05/22 05:14:41;;;;;;;2.80;0.90;;;;;;;18.73;43.87;99813.94;5052489;28;20046;-64
2021/05/22 05:17:06;;;;;;;3.70;1.00;;;;;;;18.73;43.87;99802.56;5051174;28;20388;-64
2021/05/22 05:19:32;;;;;;;2.45;0.88;;;;;;;18.72;44.01;99814.91;5052267;28;20103;-65
2021/05/22 05:21:58;;;;;;;3.72;1.08;;;;;;;18.73;43.72;99818.41;5052178;28;20032;-63
2021/05/22 05:24:27;;;;;;;4.05;0.90;;;;;;;18.73;43.72;99824.50;5051462;28;20021;-64
2021/05/22 05:26:53;;;;;;;2.53;0.93;;;;;;;18.73;44.04;99802.56;5051890;28;20037;-65
2021/05/22 05:29:18;;;;;;;3.03;0.95;;;;;;;18.79;43.81;99813.31;5051846;28;20036;-63
2021/05/22 05:31:44;;;;;;;1.60;0.70;;;;;;;18.83;44.09;99814.69;5051341;28;20402;-65
2021/05/22 05:34:09;;;;;;;3.65;0.95;;;;;;;18.87;44.10;99817.88;5051834;28;20029;-64
2021/05/22 05:36:35;;;;;;;3.60;0.80;;;;;;;18.90;43.79;99816.72;5052055;28;20025;-64
2021/05/22 05:39:01;;;;;;;2.55;0.70;;;;;;;18.93;43.82;99827.81;5051391;28;20084;-64
2021/05/22 05:41:26;;;;;;;2.17;0.80;;;;;;;18.97;43.88;99823.88;5052076;28;20020;-65
2021/05/22 05:43:52;;;;;;;3.35;0.80;;;;;;;19.02;43.87;99810.22;5052070;28;20017;-64
2021/05/22 05:46:17;;;;;;;2.70;0.70;;;;;;;19.07;43.71;99825.59;5050876;28;20056;-65
2021/05/22 05:48:42;;;;;;;3.58;0.93;;;;;;;19.13;43.61;99825.78;5051252;28;20029;-64
2021/05/22 05:51:08;;;;;;;3.83;0.80;;;;;;;19.17;43.75;99818.41;5051515;28;20095;-65
2021/05/22 05:53:35;;;;;;;2.95;1.00;;;;;;;19.20;43.13;99834.75;5051001;28;20411;-65
2021/05/22 05:56:00;;;;;;;3.45;0.77;;;;;;;19.23;43.31;99827.50;5052110;28;20037;-66
2021/05/22 05:58:25;;;;;;;3.80;1.00;;;;;;;19.24;43.18;99829.97;5051566;28;20376;-65
2021/05/22 06:00:50;;;;;;;3.60;0.75;;;;;;;19.21;43.17;99831.09;5051075;28;20049;-65
2021/05/22 06:03:29;;;;;;;3.30;0.80;;;;;;;19.29;43.25;99842.72;5051433;28;20070;-66
2021/05/22 06:05:58;;;;;;;3.40;0.95;;;;;;;19.37;43.01;99848.03;5051153;28;20061;-67
2021/05/22 06:08:24;;;;;;;3.60;1.13;;;;;;;19.38;43.10;99841.78;5051374;28;20029;-65
2021/05/22 06:10:54;;;;;;;4.28;1.05;;;;;;;19.42;43.42;99845.75;5051712;28;20032;-65
2021/05/22 06:13:29;;;;;;;2.70;0.70;;;;;;;19.45;42.97;99855.19;5050597;28;20017;-65
2021/05/22 06:16:02;;;;;;;2.63;0.80;;;;;;;19.46;43.06;99843.66;5051590;28;20446;-65
2021/05/22 06:18:34;;;;;;;3.38;0.95;;;;;;;19.47;42.88;99854.06;5051839;28;20040;-65
2021/05/22 06:21:11;;;;;;;3.53;0.73;;;;;;;19.48;42.89;99860.16;5051286;28;20090;-65
2021/05/22 06:23:38;;;;;;;3.45;0.90;;;;;;;19.49;42.84;99853.91;5052575;28;20142;-65
2021/05/22 06:26:04;;;;;;;3.85;0.90;;;;;;;19.53;43.05;99857.88;5051657;28;20040;-65
2021/05/22 06:28:30;;;;;;;3.33;0.93;;;;;;;19.55;43.02;99854.09;5050839;28;20029;-64
2021/05/22 06:30:56;;;;;;;2.92;0.90;;;;;;;19.59;42.98;99865.19;5051128;28;20110;-65
2021/05/22 06:33:22;;;;;;;3.67;0.70;;;;;;;19.61;42.80;99868.47;5051197;28;20025;-65
2021/05/22 06:35:47;;;;;;;2.60;0.80;;;;;;;19.64;43.17;99868.16;5050519;28;20024;-65
2021/05/22 06:38:13;;;;;;;3.58;0.90;;;;;;;19.64;43.08;99875.28;5051126;28;20037;-68
2021/05/22 06:40:39;;;;;;;4.30;0.90;;;;;;;19.63;42.69;99877.09;5051185;28;20029;-65
2021/05/22 06:43:04;;;;;;;2.75;0.90;;;;;;;19.64;42.86;99875.28;5050133;28;20021;-65
2021/05/22 06:45:41;;;;;;;4.20;1.00;;;;;;;19.64;43.17;99877.91;5051338;28;20474;-65
2021/05/22 06:48:10;;;;;;;3.35;0.90;;;;;;;19.63;42.95;99878.91;5050448;28;20420;-66
2021/05/22 06:50:37;;;;;;;2.60;0.88;;;;;;;19.61;42.92;99881.69;5051133;28;20071;-65
2021/05/22 06:53:03;;;;;;;3.50;0.82;;;;;;;19.61;43.16;99881.69;5050820;28;20103;-64
2021/05/22 06:55:29;;;;;;;2.67;0.70;;;;;;;19.61;43.60;99884.34;5050287;28;20021;-64
2021/05/22 06:57:54;;;;;;;2.60;0.85;;;;;;;19.60;43.48;99887.13;5051188;28;20036;-66
2021/05/22 07:00:20;;;;;;;2.47;0.85;;;;;;;19.60;43.61;99892.41;5050828;28;20475;-65
2021/05/22 07:02:46;;;;;;;1.88;0.68;;;;;;;19.58;43.91;99898.72;5053244;28;20518;-64
2021/05/22 07:05:11;;;;;;;4.72;1.08;;;;;;;19.61;43.93;99902.03;5054116;28;20127;-64
2021/05/22 07:07:38;;;;;;;3.00;0.80;;;;;;;19.61;44.33;99899.38;5054548;28;20025;-64
2021/05/22 07:10:08;;;;;;;5.40;1.00;;;;;;;19.64;43.99;99905.16;5053302;28;20025;-64
2021/05/22 07:12:33;;;;;;;2.92;0.82;;;;;;;19.65;44.46;99896.25;5054676;28;20040;-65
2021/05/22 07:14:58;;;;;;;3.60;0.80;;;;;;;19.65;44.23;99896.25;5054536;28;20173;-64
2021/05/22 07:17:24;;;;;;;3.45;0.98;;;;;;;19.69;44.28;99910.84;5053345;28;20017;-65
2021/05/22 07:19:49;;;;;;;2.85;0.90;;;;;;;19.70;44.47;99911.66;5054297;28;20043;-64
2021/05/22 07:22:22;;;;;;;4.07;0.77;;;;;;;19.64;44.44;99899.06;5054103;28;20021;-66
2021/05/22 07:24:48;;;;;;;2.17;0.73;;;;;;;19.70;44.38;99911.66;5053440;28;20021;-64
2021/05/22 07:27:15;;;;;;;2.60;0.90;;;;;;;19.70;44.24;99909.00;5053869;28;20387;-65
2021/05/22 07:29:40;;;;;;;4.22;0.82;;;;;;;19.67;44.74;99912.78;5054132;28;20025;-65
2021/05/22 07:32:06;;;;;;;2.92;0.95;;;;;;;19.69;44.50;99915.28;5053008;28;20025;-65
2021/05/22 07:34:31;;;;;;;3.35;0.90;;;;;;;19.68;44.72;99925.03;5053937;28;20017;-65
2021/05/22 07:36:57;;;;;;;4.88;1.00;;;;;;;19.70;44.85;99930.16;5053818;28;20041;-65
2021/05/22 07:39:22;;;;;;;2.87;0.90;;;;;;;19.68;44.92;99919.75;5052682;28;20025;-65
2021/05/22 07:41:47;;;;;;;3.85;0.90;;;;;;;19.65;44.99;99922.69;5054140;28;20583;-65
2021/05/22 07:44:13;;;;;;;3.70;1.05;;;;;;;19.64;45.11;99936.88;5053560;28;20021;-65
2021/05/22 07:46:38;;;;;;;3.53;0.85;;;;;;;19.64;45.15;99930.78;5053130;28;20049;-64
2021/05/22 07:49:04;;;;;;;2.88;0.90;;;;;;;19.62;45.16;99930.94;5053465;28;20025;-65
2021/05/22 07:51:29;;;;;;;3.15;0.90;;;;;;;19.60;45.61;99930.28;5053128;28;20024;-64
2021/05/22 07:53:57;;;;;;;4.93;0.95;;;;;;;19.56;45.54;99937.66;5053507;28;20036;-66
2021/05/22 07:56:23;;;;;;;2.92;0.75;;;;;;;19.56;45.36;99942.94;5053168;28;20360;-64
2021/05/22 07:58:48;;;;;;;2.65;0.90;;;;;;;19.54;45.86;99944.09;5052949;28;20035;-64
2021/05/22 08:01:13;;;;;;;2.83;0.90;;;;;;;19.53;45.38;99947.72;5053222;28;20223;-64
2021/05/22 08:03:39;;;;;;;4.00;0.70;;;;;;;19.51;45.72;99950.53;5053798;28;20514;-65
2021/05/22 08:06:04;;;;;;;3.42;0.95;;;;;;;19.48;45.91;99945.53;5052530;28;20036;-65
2021/05/22 08:08:30;;;;;;;4.03;0.90;;;;;;;19.49;46.15;99957.78;5053299;28;20021;-64
2021/05/22 08:10:55;;;;;;;3.20;0.90;;;;;;;19.50;46.16;99951.53;5053087;28;20025;-69
2021/05/22 08:13:20;;;;;;;2.60;0.90;;;;;;;19.54;46.18;99954.69;5053592;28;20839;-67
2021/05/22 08:15:46;;;;;;;2.15;0.63;;;;;;;19.57;46.19;99965.75;5052910;28;20029;-68
2021/05/22 08:18:11;;;;;;;3.50;0.75;;;;;;;19.61;46.29;99957.53;5053254;28;20027;-68
2021/05/22 08:20:38;;;;;;;4.32;0.85;;;;;;;19.63;46.30;99952.91;5053413;28;20029;-68
2021/05/22 08:23:04;;;;;;;3.80;0.80;;;;;;;19.66;46.21;99957.88;5052670;28;20036;-67
2021/05/22 08:25:29;;;;;;;3.60;0.70;;;;;;;19.69;46.15;99968.13;5053495;28;20045;-67
2021/05/22 08:27:54;;;;;;;3.65;1.00;;;;;;;19.69;46.19;99955.78;5053289;28;20032;-66
2021/05/22 08:30:20;;;;;;;3.63;0.70;;;;;;;19.67;45.99;99970.94;5053522;28;20344;-65
2021/05/22 08:32:50;;;;;;;3.80;1.05;;;;;;;19.68;46.15;99956.75;5053606;28;20016;-66
2021/05/22 08:35:15;;;;;;;3.67;0.85;;;;;;;19.70;46.52;99972.47;5052221;28;20385;-66
2021/05/22 08:37:40;;;;;;;3.85;0.80;;;;;;;19.68;46.47;99982.38;5053258;28;20021;-67
2021/05/22 08:40:07;;;;;;;2.78;0.70;;;;;;;19.65;46.37;99975.56;5053335;28;20025;-66
2021/05/22 08:42:33;;;;;;;3.08;0.95;;;;;;;19.67;46.18;99973.59;5053486;28;20052;-66
2021/05/22 08:45:13;;;;;;;2.28;0.60;;;;;;;19.64;46.55;99978.34;5054368;28;20487;-67
2021/05/22 08:47:39;;;;;;;2.33;1.33;;;;;;;19.62;46.24;99977.69;5053319;28;20507;-66
2021/05/22 08:50:07;;;;;;;1.95;0.70;;;;;;;19.60;46.43;99983.13;5054756;28;20112;-66
2021/05/22 08:52:33;;;;;;;2.63;0.90;;;;;;;19.57;46.85;99989.53;5055149;28;20048;-65
2021/05/22 08:54:59;;;;;;;2.63;0.77;;;;;;;19.57;46.57;99978.97;5054901;28;20102;-67
2021/05/22 08:57:24;;;;;;;2.50;0.85;;;;;;;19.57;46.56;99999.31;5054592;28;20063;-69
2021/05/22 08:59:49;;;;;;;2.33;0.68;;;;;;;19.56;46.24;99989.69;5053232;28;20078;-69
2021/05/22 09:02:18;;;;;;;2.42;0.70;;;;;;;19.55;46.70;99990.69;5055527;28;20114;-68
2021/05/22 09:05:06;;;;;;;2.38;0.70;;;;;;;19.53;46.41;99998.75;5052601;28;20033;-66
2021/05/22 09:07:33;;;;;;;3.35;0.75;;;;;;;19.51;46.54;99997.28;5052980;28;20024;-66
2021/05/22 09:10:08;;;;;;;2.03;0.68;;;;;;;19.52;46.64;99996.28;5052852;28;20056;-69
2021/05/22 09:12:39;;;;;;;3.83;1.00;;;;;;;19.51;46.88;99999.91;5054564;28;20095;-68
2021/05/22 09:15:16;;;;;;;2.63;0.73;;;;;;;19.50;46.89;99999.09;5053049;28;20028;-71
2021/05/22 09:17:48;;;;;;;2.58;0.93;;;;;;;19.49;47.17;100005.34;5051688;28;20028;-70
2021/05/22 09:20:23;;;;;;;2.13;0.63;;;;;;;19.49;47.00;100007.19;5052652;28;20112;-70
2021/05/22 09:23:08;;;;;;;1.13;0.45;;;;;;;19.48;47.02;100013.44;5052343;28;20029;-68
2021/05/22 09:25:46;;;;;;;2.55;1.00;;;;;;;19.45;47.28;100004.00;5052351;28;20068;-69
2021/05/22 09:28:12;;;;;;;3.83;0.73;;;;;;;19.45;46.88;100006.63;5052569;28;20027;-67
2021/05/22 09:30:40;;;;;;;3.50;0.73;;;;;;;19.42;46.87;100020.16;5051554;28;20017;-68
2021/05/22 09:33:14;;;;;;;1.60;0.60;;;;;;;19.41;47.27;100029.06;5051338;28;20085;-66
2021/05/22 09:35:54;;;;;;;3.58;0.80;;;;;;;19.40;47.09;100027.41;5052286;28;20029;-69
2021/05/22 09:38:20;;;;;;;1.60;0.52;;;;;;;19.41;47.21;100029.06;5051992;28;20017;-68
2021/05/22 09:40:48;;;;;;;1.83;0.70;;;;;;;19.39;47.29;100026.59;5052829;28;20025;-71
2021/05/22 09:43:14;;;;;;;3.15;0.85;;;;;;;19.43;47.09;100021.00;5052051;28;20425;-69
2021/05/22 09:45:42;;;;;;;2.55;0.60;;;;;;;19.39;46.92;100037.16;5051187;28;20111;-66
2021/05/22 09:48:24;;;;;;;3.72;0.82;;;;;;;19.39;46.90;100041.59;5050926;28;20123;-67
2021/05/22 09:50:51;;;;;;;2.30;0.80;;;;;;;19.36;47.24;100045.38;5051852;28;20036;-67
2021/05/22 09:53:19;;;;;;;2.40;0.93;;;;;;;19.36;47.18;100045.38;5051146;28;20025;-67
2021/05/22 09:56:10;;;;;;;2.88;0.60;;;;;;;19.34;47.06;100049.16;5051942;28;20032;-66
2021/05/22 09:58:37;;;;;;;2.22;0.73;;;;;;;19.32;47.03;100056.41;5051312;28;20036;-66
2021/05/22 10:01:03;;;;;;;1.80;0.77;;;;;;;19.29;47.09;100049.59;5052077;28;20033;-74
2021/05/22 10:03:28;;;;;;;2.80;0.82;;;;;;;19.30;46.94;100053.09;5052337;28;20096;-66
2021/05/22 10:05:54;;;;;;;1.42;0.60;;;;;;;19.27;47.00;100059.50;5051410;28;20439;-66
2021/05/22 10:08:19;;;;;;;2.03;0.68;;;;;;;19.27;46.86;100051.56;5051791;28;20036;-65
2021/05/22 10:10:47;;;;;;;2.67;0.70;;;;;;;19.27;47.25;100054.22;5052446;28;20483;-66
2021/05/22 10:13:19;;;;;;;1.55;0.60;;;;;;;19.26;46.95;100060.47;5050912;28;20021;-64
2021/05/22 10:15:47;;;;;;;1.63;0.60;;;;;;;19.26;47.39;100059.63;5051963;28;20029;-65
2021/05/22 10:18:13;;;;;;;1.60;0.60;;;;;;;19.24;47.19;100061.63;5051857;28;20020;-65
2021/05/22 10:20:38;;;;;;;2.80;0.80;;;;;;;19.26;47.07;100070.22;5051206;28;20321;-66
2021/05/22 10:23:05;;;;;;;1.85;0.68;;;;;;;19.25;47.20;100068.53;5051548;28;20037;-66
2021/05/22 10:25:31;;;;;;;3.42;0.90;;;;;;;19.25;47.04;100076.47;5051380;28;20037;-64
2021/05/22 10:27:57;;;;;;;3.28;0.70;;;;;;;19.24;47.06;100075.66;5051012;28;20032;-66
2021/05/22 10:30:29;;;;;;;1.42;0.60;;;;;;;19.28;47.31;100089.38;5051543;28;20051;-65
2021/05/22 10:33:03;;;;;;;2.90;0.68;;;;;;;19.30;47.28;100080.31;5051920;28;20036;-66
2021/05/22 10:35:28;;;;;;;;;;;;;;;19.35;46.87;100099.19;5052718;28;20045;-65
2021/05/22 10:37:57;;;;;;;2.15;0.60;;;;;;;19.37;47.09;100101.69;5055301;28;20006;-67
2021/05/22 10:40:51;;;;;;;2.35;0.63;;;;;;;19.43;46.90;100095.81;5054043;28;20028;-65
2021/05/22 10:43:52;;;;;;;3.10;0.75;;;;;;;19.44;47.12;100100.13;5055231;28;20021;-67
2021/05/22 10:46:18;;;;;;;3.25;0.70;;;;;;;19.49;46.84;100110.22;5054810;28;20459;-64
2021/05/22 10:48:43;;;;;;;1.70;0.80;;;;;;;19.50;46.88;100106.59;5054373;28;20052;-64
2021/05/22 10:51:41;;;;;;;4.28;1.30;;;;;;;19.52;47.00;100108.13;5054707;28;20029;-65
2021/05/22 10:54:13;;;;;;;4.00;2.10;;;;;;;19.51;46.94;100119.66;5010367;28;20118;-66
2021/05/22 10:57:02;;;;;;;5.13;3.15;;;;;;;19.54;46.90;100119.34;5054899;28;20029;-64
2021/05/22 10:59:28;;;;;;;6.40;3.75;;;;;;;19.54;47.30;100135.22;5054524;28;20033;-65
2021/05/22 11:01:53;;;;;;;5.75;4.30;;;;;;;19.54;47.56;100150.25;5054458;28;20031;-65
2021/05/22 11:04:23;;;;;;;6.15;4.53;;;;;;;19.51;47.63;100154.00;5054588;28;20530;-66
2021/05/22 11:07:15;;;;;;;5.38;4.32;;;;;;;19.52;47.59;100160.16;5054854;28;20380;-66
2021/05/22 11:09:42;;;;;;;5.57;4.40;;;;;;;19.51;47.43;100171.69;5054129;28;20467;-66
2021/05/22 11:12:10;;;;;;;5.88;3.75;;;;;;;19.51;47.77;100176.97;5058000;28;20036;-68
2021/05/22 11:14:54;;;;;;;6.13;4.18;;;;;;;19.50;48.00;100173.50;5060833;28;20036;-66
2021/05/22 11:17:20;;;;;;;6.63;4.13;;;;;;;19.49;47.82;100182.41;5058647;28;20033;-67
2021/05/22 11:20:01;;;;;;;5.57;3.90;;;;;;;19.50;48.07;100191.16;5059758;28;20498;-66
2021/05/22 11:22:36;;;;;;;5.55;3.70;;;;;;;19.50;47.77;100197.28;5058705;28;20052;-66
2021/05/22 11:25:08;;;;;;;5.07;3.40;;;;;;;19.51;47.76;100191.00;5061149;28;20053;-68
2021/05/22 11:30:35;;;;;;;4.45;3.08;;;;;;;19.53;48.29;100206.72;5058397;28;20032;-72
2021/05/22 11:33:03;;;;;;;4.93;3.10;;;;;;;19.52;48.21;100215.66;5055837;28;20021;-71
2021/05/22 11:35:28;;;;;;;5.90;2.88;;;;;;;19.55;48.38;100225.88;5056175;28;20051;-70
2021/05/22 11:38:12;;;;;;;4.32;2.53;;;;;;;19.55;48.22;100224.09;5055382;28;20052;-70